Time;durP1;ratioP1;P1;durP2;ratioP2;P2;SDS_P1;SDS_P2;PMS_P1;PMS_P2;Temp;Humidity;BMP_temperature;BMP_pressure;BME280_temperature;BME280_humidity;BME280_pressure;Samples;Min_cycle;Max_cycle;Signal;HPM_P1;HPM_P2
2022/04/18 00:00:34;;;;;;;7.30;5.05;;;;;;;8.06;54.92;101943.13;5107054;28;20054;-75
2022/04/18 00:03:03;;;;;;;8.25;5.55;;;;;;;8.02;55.66;101931.00;5116132;28;20027;-76
2022/04/18 00:05:29;;;;;;;8.05;5.18;;;;;;;7.97;55.24;101943.06;5114024;28;20024;-75
2022/04/18 00:07:55;;;;;;;7.20;5.18;;;;;;;7.92;56.76;101937.88;5108049;28;20076;-76
2022/04/18 00:10:23;;;;;;;6.63;4.93;;;;;;;7.89;55.73;101935.25;5102738;28;20429;-76
2022/04/18 00:12:48;;;;;;;6.70;4.60;;;;;;;7.84;57.25;101934.34;5112264;28;20035;-75
2022/04/18 00:15:13;;;;;;;7.68;4.80;;;;;;;7.79;57.15;101932.63;5115270;28;20379;-76
2022/04/18 00:17:39;;;;;;;6.57;4.72;;;;;;;7.71;55.28;101930.81;5113684;28;20108;-75
2022/04/18 00:20:05;;;;;;;8.15;4.63;;;;;;;7.60;54.72;101929.91;5105388;28;20032;-75
2022/04/18 00:22:30;;;;;;;8.13;4.40;;;;;;;7.56;55.11;101922.97;5102236;28;20031;-75
2022/04/18 00:24:55;;;;;;;9.25;4.20;;;;;;;7.46;54.22;101928.94;5115570;28;20016;-75
2022/04/18 00:27:21;;;;;;;5.80;4.20;;;;;;;7.42;55.75;101928.06;5113170;28;20050;-76
2022/04/18 00:29:47;;;;;;;7.72;3.97;;;;;;;7.33;55.12;101933.19;5098429;28;20032;-75
2022/04/18 00:32:14;;;;;;;7.75;4.45;;;;;;;7.30;55.67;101927.13;5094836;28;20065;-76
2022/04/18 00:34:40;;;;;;;7.05;4.53;;;;;;;7.25;55.19;101930.50;5098486;27;20116;-75
2022/04/18 00:37:05;;;;;;;5.90;4.28;;;;;;;7.22;55.38;101945.19;5114219;28;20495;-75
2022/04/18 00:39:30;;;;;;;7.75;4.50;;;;;;;7.13;56.67;101935.63;5112602;28;20071;-75
2022/04/18 00:41:56;;;;;;;8.32;4.38;;;;;;;7.13;56.79;101935.63;5102636;28;20030;-75
2022/04/18 00:44:21;;;;;;;6.28;4.72;;;;;;;7.09;56.53;101939.03;5094886;28;20032;-76
2022/04/18 00:46:46;;;;;;;7.38;4.28;;;;;;;6.98;57.09;101925.13;5107100;28;20039;-75
2022/04/18 00:49:12;;;;;;;5.35;4.50;;;;;;;6.97;56.88;101932.03;5110718;28;20379;-75
2022/04/18 00:51:37;;;;;;;6.65;4.30;;;;;;;6.91;56.60;101934.56;5100127;28;20044;-75
2022/04/18 00:54:02;;;;;;;6.28;3.90;;;;;;;6.89;56.02;101932.81;5114455;28;20401;-75
2022/04/18 00:56:28;;;;;;;6.38;4.43;;;;;;;6.88;56.68;101933.66;5112070;28;20030;-75
2022/04/18 00:58:55;;;;;;;6.95;5.53;;;;;;;6.84;57.87;101934.50;5107536;28;20028;-75
2022/04/18 01:01:20;;;;;;;10.38;5.00;;;;;;;6.79;56.57;101930.13;5103783;28;20031;-75
2022/04/18 01:03:46;;;;;;;9.13;5.20;;;;;;;6.80;58.94;101937.06;5113663;28;20028;-75
2022/04/18 01:06:14;;;;;;;5.68;4.55;;;;;;;6.76;58.30;101924.91;5114496;28;20027;-75
2022/04/18 01:08:39;;;;;;;8.20;5.20;;;;;;;6.84;59.94;101927.59;5113597;28;20031;-75
2022/04/18 01:11:09;;;;;;;6.90;4.72;;;;;;;6.82;59.42;101920.66;5108961;28;20482;-75
2022/04/18 01:13:46;;;;;;;7.35;4.82;;;;;;;6.77;58.94;101928.41;5103704;28;20463;-75
2022/04/18 01:16:12;;;;;;;9.73;4.07;;;;;;;6.70;59.75;101919.69;5114109;28;20023;-75
2022/04/18 01:18:38;;;;;;;8.75;4.82;;;;;;;6.66;59.87;101917.91;5103511;28;20046;-75
2022/04/18 01:21:04;;;;;;;5.70;4.50;;;;;;;6.59;59.45;101925.63;5104352;28;20028;-75
2022/04/18 01:23:30;;;;;;;6.85;4.40;;;;;;;6.48;58.11;101917.72;5095172;28;20115;-75
2022/04/18 01:31:23;;;;;;;;;;;;;;;6.41;55.91;101919.38;5098460;28;20081;-75
2022/04/18 01:33:49;;;;;;;11.10;6.65;;;;;;;6.29;58.38;101927.88;5093747;28;19924;-75
2022/04/18 01:36:14;;;;;;;9.73;6.32;;;;;;;6.28;61.26;101913.19;5093139;28;20028;-75
2022/04/18 01:38:39;;;;;;;7.60;5.13;;;;;;;6.32;62.35;101920.16;5093445;28;20024;-75
2022/04/18 01:41:04;;;;;;;7.50;4.97;;;;;;;6.31;62.49;101920.13;5105613;28;20031;-75
2022/04/18 01:43:30;;;;;;;11.68;5.18;;;;;;;6.20;62.34;101920.00;5104304;28;20032;-74
2022/04/18 01:45:55;;;;;;;7.03;4.82;;;;;;;6.19;62.39;101928.63;5113249;28;20391;-75
2022/04/18 01:48:20;;;;;;;7.25;5.05;;;;;;;6.12;63.27;101924.22;5098383;28;20035;-75
2022/04/18 01:50:46;;;;;;;6.80;5.10;;;;;;;6.14;64.17;101932.00;5106174;28;20035;-74
2022/04/18 01:53:12;;;;;;;9.00;4.82;;;;;;;6.15;64.02;101920.78;5112921;28;20067;-75
2022/04/18 01:55:37;;;;;;;7.95;5.88;;;;;;;6.12;64.13;101918.19;5111612;28;20051;-75
2022/04/18 01:58:05;;;;;;;9.73;6.03;;;;;;;6.08;63.67;101919.84;5111513;28;20478;-75
2022/04/18 02:00:30;;;;;;;7.35;4.65;;;;;;;6.05;63.92;101917.25;5102209;28;20475;-75
2022/04/18 02:02:56;;;;;;;7.25;4.60;;;;;;;6.01;62.13;101918.03;5093392;28;20035;-75
2022/04/18 02:05:22;;;;;;;9.63;4.20;;;;;;;6.01;63.19;101911.13;5092625;28;20031;-75
2022/04/18 02:07:47;;;;;;;6.55;4.20;;;;;;;5.97;61.87;101911.94;5106502;28;20032;-75
2022/04/18 02:10:13;;;;;;;5.32;4.35;;;;;;;5.91;61.41;101911.84;5110652;28;20028;-75
2022/04/18 02:12:38;;;;;;;7.43;4.00;;;;;;;5.83;59.85;101903.13;5091743;28;20028;-75
2022/04/18 02:15:04;;;;;;;5.50;4.30;;;;;;;5.72;61.28;101903.00;5104064;28;20020;-75
2022/04/18 02:17:29;;;;;;;5.55;4.25;;;;;;;5.71;60.83;101908.13;5092363;28;20435;-75
2022/04/18 02:19:55;;;;;;;5.18;4.20;;;;;;;5.67;60.95;101904.63;5110927;28;20498;-75
2022/04/18 02:22:23;;;;;;;6.88;4.50;;;;;;;5.63;61.20;101902.84;5103676;28;20464;-75
2022/04/18 02:24:49;;;;;;;5.85;4.25;;;;;;;5.60;62.21;101900.22;5098437;28;20238;-75
2022/04/18 02:27:15;;;;;;;6.05;4.93;;;;;;;5.62;63.57;101902.00;5094081;28;20729;-75
2022/04/18 02:29:41;;;;;;;5.32;4.32;;;;;;;5.58;63.25;101901.91;5097603;28;20426;-75
2022/04/18 02:34:51;;;;;;;9.55;5.07;;;;;;;5.49;62.57;101900.06;5092028;28;20491;-75
2022/04/18 02:37:16;;;;;;;7.47;5.05;;;;;;;5.42;63.36;101892.19;5092947;28;20056;-75
2022/04/18 02:39:41;;;;;;;6.38;4.93;;;;;;;5.42;63.50;101893.06;5091669;28;20032;-75
2022/04/18 02:42:08;;;;;;;5.38;4.63;;;;;;;5.38;63.89;101894.72;5109330;28;20028;-75
2022/04/18 02:44:34;;;;;;;5.82;4.90;;;;;;;5.35;65.66;101881.75;5107546;27;20024;-75
2022/04/18 02:46:59;;;;;;;7.20;5.35;;;;;;;5.36;64.60;101887.78;5107309;28;20034;-75
2022/04/18 02:49:24;;;;;;;5.75;4.68;;;;;;;5.31;64.71;101877.41;5110300;28;21195;-75
2022/04/18 02:51:49;;;;;;;5.68;4.50;;;;;;;5.30;63.19;101886.00;5104735;28;20044;-75
2022/04/18 02:54:15;;;;;;;6.85;4.97;;;;;;;5.24;63.33;101879.88;5112342;28;20039;-75
2022/04/18 02:56:40;;;;;;;6.35;4.50;;;;;;;5.20;62.97;101880.66;5111203;28;20023;-75
2022/04/18 02:59:05;;;;;;;5.13;4.35;;;;;;;5.18;63.23;101872.03;5107742;28;20036;-75
2022/04/18 03:01:31;;;;;;;6.03;4.65;;;;;;;5.10;62.64;101866.72;5103244;28;20481;-75
2022/04/18 03:03:56;;;;;;;8.02;4.60;;;;;;;5.12;62.72;101867.63;5092511;28;20032;-75
2022/04/18 03:06:21;;;;;;;8.07;5.20;;;;;;;5.07;63.07;101859.81;5092336;28;20024;-75
2022/04/18 03:08:47;;;;;;;8.30;5.25;;;;;;;5.05;64.63;101855.47;5091205;28;20090;-75
2022/04/18 03:11:12;;;;;;;9.07;5.72;;;;;;;5.06;64.51;101862.34;5094652;28;20059;-75
2022/04/18 03:13:44;;;;;;;10.02;5.40;;;;;;;5.05;65.29;101863.22;5096677;28;20072;-75
2022/04/18 03:16:10;;;;;;;8.95;5.40;;;;;;;4.95;62.99;101848.41;5091710;28;20111;-75
2022/04/18 03:18:36;;;;;;;8.38;5.38;;;;;;;4.97;64.27;101857.03;5099664;28;20032;-74
2022/04/18 03:21:03;;;;;;;17.73;8.82;;;;;;;4.86;64.09;101842.25;5096419;28;20032;-74
2022/04/18 03:23:28;;;;;;;26.83;12.73;;;;;;;4.87;63.24;101864.66;5091586;28;20121;-74
2022/04/18 03:25:54;;;;;;;25.48;13.05;;;;;;;4.82;63.83;101857.69;5091690;28;20492;-75
2022/04/18 03:28:19;;;;;;;30.70;14.88;;;;;;;4.85;64.58;101858.59;5108206;28;20054;-75
2022/04/18 03:30:44;;;;;;;32.10;15.32;;;;;;;4.78;64.78;101861.94;5095572;28;20395;-75
2022/04/18 03:33:10;;;;;;;30.95;15.05;;;;;;;4.75;66.05;101861.88;5092105;28;20032;-74
2022/04/18 03:35:35;;;;;;;20.42;10.75;;;;;;;4.77;68.07;101859.31;5091734;28;20047;-74
2022/04/18 03:40:44;;;;;;;24.38;12.95;;;;;;;4.69;68.46;101862.63;5116485;28;20108;-75
2022/04/18 03:43:09;;;;;;;24.15;12.70;;;;;;;4.68;67.63;101863.50;5113986;28;20015;-75
2022/04/18 03:45:35;;;;;;;24.58;13.40;;;;;;;4.63;67.53;101866.81;5116279;28;20024;-75
2022/04/18 03:48:00;;;;;;;30.13;15.65;;;;;;;4.58;66.54;101860.72;5098143;28;20357;-75
2022/04/18 03:50:26;;;;;;;34.75;16.75;;;;;;;4.54;66.91;101864.94;5095251;28;20448;-75
2022/04/18 03:52:51;;;;;;;39.55;18.88;;;;;;;4.50;66.35;101862.28;5099419;28;20506;-75
2022/04/18 03:55:17;;;;;;;40.03;20.95;;;;;;;4.50;68.21;101863.16;5098600;28;20042;-75
2022/04/18 03:57:42;;;;;;;42.42;19.75;;;;;;;4.43;66.03;101857.00;5106380;28;20382;-75
2022/04/18 04:00:09;;;;;;;44.22;21.13;;;;;;;4.42;65.92;101857.88;5105476;28;20159;-75
2022/04/18 04:02:34;;;;;;;42.65;22.27;;;;;;;4.36;66.09;101860.31;5114254;28;20026;-75
2022/04/18 04:04:59;;;;;;;44.75;23.35;;;;;;;4.36;65.54;101869.78;5115752;28;20028;-75
2022/04/18 04:07:25;;;;;;;40.67;22.83;;;;;;;4.33;68.94;101857.69;5114983;28;20022;-75
2022/04/18 04:09:50;;;;;;;44.08;22.70;;;;;;;4.35;68.77;101856.03;5110526;28;20036;-75
2022/04/18 04:12:25;;;;;;;45.05;22.83;;;;;;;4.36;68.87;101856.88;5104005;28;20124;-75
2022/04/18 04:14:54;;;;;;;40.97;22.33;;;;;;;4.34;68.24;101863.72;5094861;28;20032;-75
2022/04/18 04:17:23;;;;;;;41.13;21.73;;;;;;;4.30;69.42;101856.75;5095815;28;20099;-75
2022/04/18 04:19:49;;;;;;;36.15;20.70;;;;;;;4.23;68.51;101851.47;5094622;28;20096;-75
2022/04/18 04:22:14;;;;;;;39.33;22.55;;;;;;;4.20;68.43;101858.31;5108553;28;20032;-75
2022/04/18 04:24:40;;;;;;;39.47;22.92;;;;;;;4.18;69.11;101853.09;5100901;28;20034;-75
2022/04/18 04:27:05;;;;;;;43.13;23.85;;;;;;;4.17;68.20;101850.50;5094986;28;20028;-75
2022/04/18 04:29:31;;;;;;;42.25;25.05;;;;;;;4.08;67.87;101845.16;5094872;28;20380;-75
2022/04/18 04:31:57;;;;;;;44.10;23.13;;;;;;;4.13;68.85;101849.56;5109531;28;20066;-75
2022/04/18 04:34:22;;;;;;;41.35;25.13;;;;;;;4.09;68.77;101863.28;5115163;28;20058;-75
2022/04/18 04:36:48;;;;;;;40.00;22.48;;;;;;;4.09;68.96;101855.53;5114921;28;20520;-74
2022/04/18 04:39:13;;;;;;;40.55;21.05;;;;;;;4.06;68.26;101857.19;5114688;28;20028;-74
2022/04/18 04:41:38;;;;;;;36.50;20.58;;;;;;;4.02;67.86;101856.22;5115041;28;20534;-74
2022/04/18 04:44:07;;;;;;;33.92;20.50;;;;;;;4.04;68.07;101862.28;5115606;28;20071;-74
2022/04/18 04:46:34;;;;;;;32.22;19.70;;;;;;;4.02;69.79;101858.81;5115199;27;20021;-75
2022/04/18 04:48:59;;;;;;;33.15;19.27;;;;;;;4.03;69.46;101857.13;5109481;28;20174;-75
2022/04/18 04:51:24;;;;;;;39.42;20.55;;;;;;;4.07;69.80;101864.94;5115264;28;20184;-75
2022/04/18 04:53:50;;;;;;;37.00;21.65;;;;;;;4.07;70.11;101856.34;5113933;28;20088;-75
2022/04/18 04:56:17;;;;;;;32.72;20.27;;;;;;;4.10;69.67;101858.97;5115364;28;20031;-74
2022/04/18 04:58:42;;;;;;;30.73;17.90;;;;;;;4.11;69.13;101868.44;5114550;28;20023;-74
2022/04/18 05:01:07;;;;;;;30.33;17.75;;;;;;;4.13;69.95;101859.03;5114586;28;20496;-74
2022/04/18 05:03:33;;;;;;;27.70;16.85;;;;;;;4.14;69.58;101865.94;5114543;28;20379;-74
2022/04/18 05:05:58;;;;;;;25.70;15.50;;;;;;;4.12;68.98;101860.75;5101974;28;20034;-74
2022/04/18 05:08:23;;;;;;;28.98;16.55;;;;;;;4.15;69.35;101867.66;5094082;28;20020;-74
2022/04/18 05:10:48;;;;;;;29.33;16.60;;;;;;;4.21;71.01;101870.34;5093828;28;20471;-74
2022/04/18 05:13:14;;;;;;;31.63;16.98;;;;;;;4.24;69.78;101867.84;5094356;28;20035;-74
2022/04/18 05:15:39;;;;;;;24.92;15.00;;;;;;;4.30;69.77;101865.38;5093447;28;20391;-74
2022/04/18 05:18:04;;;;;;;22.27;13.60;;;;;;;4.31;69.66;101855.91;5094357;28;20036;-75
2022/04/18 05:20:31;;;;;;;22.00;11.68;;;;;;;4.37;69.66;101867.22;5093730;28;20036;-74
2022/04/18 05:22:56;;;;;;;16.70;10.13;;;;;;;4.40;69.26;101859.53;5094239;28;20020;-75
2022/04/18 05:25:22;;;;;;;18.13;10.90;;;;;;;4.49;69.12;101866.59;5099927;28;20026;-74
2022/04/18 05:27:48;;;;;;;17.20;11.18;;;;;;;4.57;69.66;101864.13;5113963;28;20055;-74
2022/04/18 05:30:13;;;;;;;16.52;9.52;;;;;;;4.67;70.20;101866.03;5114152;28;20043;-74
2022/04/18 05:32:38;;;;;;;10.68;8.05;;;;;;;4.74;68.32;101864.41;5105225;28;20036;-74
2022/04/18 05:35:05;;;;;;;11.00;6.55;;;;;;;4.91;69.06;101874.19;5112080;28;20088;-74
2022/04/18 05:37:31;;;;;;;7.43;5.50;;;;;;;5.03;67.25;101867.47;5113232;28;20080;-74
2022/04/18 05:39:56;;;;;;;11.80;5.80;;;;;;;5.14;66.79;101878.88;5102257;28;20031;-75
2022/04/18 05:42:24;;;;;;;10.15;5.78;;;;;;;5.23;65.95;101871.25;5112549;28;20035;-74
2022/04/18 05:44:49;;;;;;;8.30;4.75;;;;;;;5.37;65.46;101872.31;5113174;28;20087;-74
2022/04/18 05:47:14;;;;;;;7.07;4.82;;;;;;;5.49;65.49;101874.19;5105316;28;20020;-74
2022/04/18 05:49:40;;;;;;;6.97;4.60;;;;;;;5.61;66.64;101876.94;5112901;27;20025;-75
2022/04/18 05:52:05;;;;;;;6.25;4.57;;;;;;;5.67;64.71;101858.06;5111054;28;20058;-74
2022/04/18 05:54:30;;;;;;;7.25;4.70;;;;;;;5.82;64.20;101871.22;5093001;28;20427;-74
2022/04/18 05:56:56;;;;;;;5.85;4.25;;;;;;;5.98;61.86;101874.84;5110163;28;20034;-74
2022/04/18 05:59:21;;;;;;;8.82;4.65;;;;;;;6.05;61.21;101861.16;5112802;28;20462;-74
2022/04/18 06:01:46;;;;;;;6.22;4.25;;;;;;;6.27;62.24;101872.59;5110284;28;20039;-74
2022/04/18 06:04:11;;;;;;;6.25;4.22;;;;;;;6.39;61.17;101876.19;5112744;28;20031;-74
2022/04/18 06:06:37;;;;;;;5.32;4.00;;;;;;;6.54;59.65;101876.34;5113155;28;20078;-74
2022/04/18 06:09:02;;;;;;;7.90;4.32;;;;;;;6.64;59.16;101875.59;5110883;28;20038;-74
2022/04/18 06:11:27;;;;;;;4.47;3.67;;;;;;;6.78;58.57;101873.09;5102784;28;20024;-74
2022/04/18 06:13:54;;;;;;;8.02;4.72;;;;;;;6.91;56.53;101872.34;5108585;28;20032;-74
2022/04/18 06:16:20;;;;;;;7.07;4.18;;;;;;;7.06;56.60;101875.91;5112217;28;20015;-75
2022/04/18 06:18:45;;;;;;;7.68;4.65;;;;;;;7.18;56.23;101881.19;5105869;28;20016;-74
2022/04/18 06:21:11;;;;;;;6.93;4.38;;;;;;;7.26;56.49;101880.41;5097681;28;20050;-75
2022/04/18 06:23:36;;;;;;;6.03;4.28;;;;;;;7.36;56.73;101877.88;5108890;28;20034;-74
2022/04/18 06:26:01;;;;;;;6.25;4.10;;;;;;;7.46;58.50;101875.34;5111993;28;20027;-74
2022/04/18 06:28:26;;;;;;;6.65;4.35;;;;;;;7.52;58.18;101877.09;5111532;28;20023;-74
2022/04/18 06:30:52;;;;;;;6.97;4.63;;;;;;;7.64;55.39;101878.88;5111177;28;20416;-74
2022/04/18 06:33:18;;;;;;;8.38;4.57;;;;;;;7.73;56.50;101871.13;5092976;28;20119;-74
2022/04/18 06:35:46;;;;;;;8.52;4.55;;;;;;;7.82;55.02;101872.94;5099901;28;20068;-74
2022/04/18 06:38:11;;;;;;;6.97;4.53;;;;;;;7.92;55.01;101861.72;5107043;28;20032;-74
2022/04/18 06:40:37;;;;;;;5.65;4.22;;;;;;;8.05;53.77;101868.69;5112130;28;20030;-74
2022/04/18 06:43:02;;;;;;;7.35;4.25;;;;;;;8.16;54.21;101869.56;5112430;28;20032;-74
2022/04/18 06:45:28;;;;;;;5.53;3.90;;;;;;;8.24;54.45;101863.53;5113091;27;20015;-75
2022/04/18 06:47:54;;;;;;;4.57;3.70;;;;;;;8.34;53.31;101865.31;5097843;28;20047;-75
2022/04/18 06:50:19;;;;;;;5.60;3.90;;;;;;;8.47;52.90;101861.91;5113017;28;20508;-75
2022/04/18 06:52:46;;;;;;;5.45;3.60;;;;;;;8.61;52.52;101874.91;5109451;28;20112;-75
2022/04/18 06:55:11;;;;;;;8.63;4.00;;;;;;;8.76;51.13;101868.81;5107982;28;20510;-75
2022/04/18 06:57:37;;;;;;;6.60;3.85;;;;;;;8.81;51.14;101859.31;5096552;28;20032;-75
2022/04/18 07:00:04;;;;;;;6.75;3.78;;;;;;;8.99;50.01;101872.31;5103354;28;20102;-75
2022/04/18 07:02:30;;;;;;;4.60;3.70;;;;;;;9.11;49.97;101866.22;5110536;28;20042;-75
2022/04/18 07:04:55;;;;;;;5.82;3.38;;;;;;;9.21;49.88;101864.47;5111336;28;20106;-75
2022/04/18 07:07:20;;;;;;;4.63;3.35;;;;;;;9.33;49.88;101869.66;5102718;28;20035;-75
2022/04/18 07:09:46;;;;;;;6.10;3.50;;;;;;;9.41;50.76;101867.91;5111902;28;20467;-74
2022/04/18 07:12:11;;;;;;;6.18;3.80;;;;;;;9.53;48.88;101857.47;5110534;28;20035;-75
2022/04/18 07:14:36;;;;;;;5.40;3.10;;;;;;;9.67;49.83;101864.38;5107769;27;20467;-74
2022/04/18 07:17:03;;;;;;;4.20;3.47;;;;;;;9.77;48.80;101858.25;5112520;28;20031;-75
2022/04/18 07:19:28;;;;;;;5.18;3.80;;;;;;;9.87;47.69;101869.50;5112069;28;20055;-75
2022/04/18 07:21:54;;;;;;;7.90;3.33;;;;;;;9.90;49.63;101859.94;5117551;27;20175;-74
2022/04/18 07:24:19;;;;;;;5.13;3.42;;;;;;;9.96;46.38;101865.09;5118202;27;20023;-75
2022/04/18 07:26:44;;;;;;;5.13;3.58;;;;;;;10.09;47.42;101858.97;5117231;27;20024;-74
2022/04/18 07:29:10;;;;;;;6.38;3.47;;;;;;;10.21;47.52;101855.44;5111720;28;20051;-74
2022/04/18 07:31:35;;;;;;;4.38;3.50;;;;;;;10.37;46.97;101856.25;5121682;28;20059;-75
2022/04/18 07:34:00;;;;;;;6.65;3.80;;;;;;;10.50;46.23;101849.22;5132774;27;20026;-74
2022/04/18 07:36:25;;;;;;;4.78;3.50;;;;;;;10.63;48.49;101852.59;5132222;27;20023;-75
2022/04/18 07:38:51;;;;;;;5.63;3.30;;;;;;;10.76;46.50;101849.00;5108335;27;20096;-75
2022/04/18 07:41:22;;;;;;;5.13;3.22;;;;;;;10.87;45.39;101852.38;5091864;28;20440;-75
2022/04/18 07:43:48;;;;;;;5.50;3.20;;;;;;;10.96;44.89;101838.41;5090853;28;20024;-75
2022/04/18 07:46:17;;;;;;;4.40;3.38;;;;;;;11.09;45.89;101841.78;5094183;28;20380;-74
2022/04/18 07:48:44;;;;;;;4.03;2.90;;;;;;;11.24;43.48;101837.22;5091044;28;20020;-75
2022/04/18 07:53:53;;;;;;;3.35;2.88;;;;;;;11.47;43.42;101838.75;5101086;28;20500;-75
2022/04/18 07:56:20;;;;;;;6.60;3.90;;;;;;;11.58;42.34;101841.25;5114693;28;20043;-75
2022/04/18 07:58:46;;;;;;;4.18;2.60;;;;;;;11.71;42.44;101837.59;5115407;27;20368;-74
2022/04/18 08:01:11;;;;;;;5.95;2.92;;;;;;;11.84;42.67;101833.09;5102659;28;20038;-75
2022/04/18 08:03:36;;;;;;;4.35;3.20;;;;;;;11.90;42.22;101827.78;5110922;28;20035;-75
2022/04/18 08:06:02;;;;;;;5.70;3.00;;;;;;;11.99;42.84;101827.69;5110767;28;20024;-76
2022/04/18 08:08:28;;;;;;;4.75;3.13;;;;;;;12.11;41.65;101835.34;5108489;28;20031;-78
2022/04/18 08:10:53;;;;;;;3.40;2.88;;;;;;;12.15;39.29;101838.78;5108382;28;20032;-78
2022/04/18 08:13:18;;;;;;;3.75;2.50;;;;;;;12.26;39.31;101826.44;5112005;28;20059;-77
2022/04/18 08:15:43;;;;;;;7.30;2.90;;;;;;;12.39;39.35;101834.94;5111047;28;20034;-78
2022/04/18 08:18:09;;;;;;;3.78;2.53;;;;;;;12.50;38.65;101837.41;5111103;28;20040;-77
2022/04/18 08:20:34;;;;;;;4.95;3.03;;;;;;;12.56;39.92;101829.47;5096090;28;20099;-77
2022/04/18 08:22:59;;;;;;;5.60;2.90;;;;;;;12.65;39.76;101834.53;5109160;27;20024;-78
2022/04/18 08:25:25;;;;;;;3.67;2.78;;;;;;;12.73;39.71;101832.66;5116615;27;20047;-78
2022/04/18 08:27:50;;;;;;;3.30;2.75;;;;;;;12.87;40.25;101830.66;5127866;27;20501;-77
2022/04/18 08:30:16;;;;;;;4.57;2.80;;;;;;;13.06;38.71;101830.34;5105754;28;20031;-76
2022/04/18 08:32:42;;;;;;;3.60;2.58;;;;;;;13.22;38.36;101834.41;5114292;28;20034;-77
2022/04/18 08:35:08;;;;;;;3.75;2.60;;;;;;;13.26;39.76;101827.41;5115324;28;20023;-76
2022/04/18 08:37:34;;;;;;;4.28;2.75;;;;;;;13.28;37.32;101829.09;5114814;28;20023;-76
2022/04/18 08:40:01;;;;;;;3.15;2.50;;;;;;;13.35;36.46;101837.72;5116035;27;20080;-76
2022/04/18 08:42:32;;;;;;;5.00;3.00;;;;;;;13.38;36.22;101827.19;5115219;28;20038;-76
2022/04/18 08:44:58;;;;;;;4.20;3.00;;;;;;;13.55;37.19;101840.78;5115172;28;20038;-76
2022/04/18 08:52:52;;;;;;;4.68;2.47;;;;;;;13.93;37.38;101830.41;5114122;27;19968;-76
2022/04/18 08:55:19;;;;;;;4.68;3.35;;;;;;;13.99;35.41;101830.25;5094599;28;20367;-76
2022/04/18 08:57:44;;;;;;;4.32;2.70;;;;;;;14.00;36.32;101835.50;5093494;28;20024;-77
2022/04/18 09:00:12;;;;;;;4.63;3.10;;;;;;;14.13;34.86;101833.47;5102611;28;20038;-76
2022/04/18 09:02:38;;;;;;;4.13;2.85;;;;;;;14.18;34.28;101826.34;5114452;28;20023;-76
2022/04/18 09:05:03;;;;;;;2.95;2.65;;;;;;;14.26;37.62;101820.94;5114654;28;20030;-76
2022/04/18 09:07:29;;;;;;;4.43;2.90;;;;;;;14.42;35.80;101824.03;5114296;27;20122;-76
2022/04/18 09:09:58;;;;;;;5.32;2.85;;;;;;;14.55;36.28;101822.91;5111580;28;20088;-77
2022/04/18 09:12:27;;;;;;;5.63;3.22;;;;;;;14.58;33.78;101830.69;5094082;28;20458;-77
2022/04/18 09:14:52;;;;;;;7.68;3.30;;;;;;;14.55;33.50;101822.91;5121524;27;20034;-76
2022/04/18 09:17:31;;;;;;;4.25;3.03;;;;;;;14.60;35.32;101828.03;5111967;28;20135;-76
2022/04/18 09:20:09;;;;;;;4.60;2.72;;;;;;;14.72;36.18;101819.88;5095695;28;20043;-76
2022/04/18 09:22:45;;;;;;;3.17;2.88;;;;;;;14.87;35.18;101831.72;5111651;28;20030;-76
2022/04/18 09:25:13;;;;;;;3.65;2.70;;;;;;;14.84;34.40;101830.03;5114746;28;20024;-76
2022/04/18 09:27:39;;;;;;;3.15;2.80;;;;;;;14.87;35.38;101831.72;5113420;28;20590;-76
2022/04/18 09:30:07;;;;;;;4.40;2.90;;;;;;;14.88;34.36;101821.19;5123978;27;20019;-77
2022/04/18 09:32:33;;;;;;;3.13;2.80;;;;;;;14.99;35.27;101820.91;5112984;28;20027;-78
2022/04/18 09:35:04;;;;;;;3.45;2.88;;;;;;;15.15;34.45;101822.22;5112955;28;20028;-77
2022/04/18 09:37:30;;;;;;;4.47;3.20;;;;;;;15.20;34.36;101815.09;5119901;27;20021;-77
2022/04/18 09:39:56;;;;;;;4.40;3.20;;;;;;;15.23;35.60;101809.72;5118686;27;20036;-78
2022/04/18 09:42:26;;;;;;;5.15;3.33;;;;;;;15.38;35.28;101812.84;5113920;28;20091;-77
2022/04/18 09:44:52;;;;;;;4.22;3.08;;;;;;;15.42;35.49;101806.59;5113601;28;20031;-77
2022/04/18 09:47:23;;;;;;;7.20;3.17;;;;;;;15.45;35.09;101804.75;5115349;27;20083;-78
2022/04/18 09:49:49;;;;;;;4.70;3.10;;;;;;;15.54;32.37;101803.63;5095231;27;20469;-77
2022/04/18 09:52:17;;;;;;;4.05;3.08;;;;;;;15.61;34.36;101802.53;5094994;27;20040;-77
2022/04/18 09:54:58;;;;;;;4.25;3.03;;;;;;;15.73;31.89;101798.72;5116476;27;20122;-77
2022/04/18 09:57:25;;;;;;;5.68;2.80;;;;;;;15.81;32.88;101801.13;5100720;27;20092;-77
2022/04/18 09:59:52;;;;;;;5.03;3.13;;;;;;;15.94;32.75;101797.22;5113190;28;20493;-77
2022/04/18 10:02:18;;;;;;;5.15;2.95;;;;;;;16.18;32.71;101785.06;5130776;27;20072;-77
2022/04/18 10:04:44;;;;;;;6.55;3.30;;;;;;;16.33;32.15;101784.56;5133374;27;20023;-78
2022/04/18 10:07:10;;;;;;;4.32;3.47;;;;;;;16.47;31.39;101791.16;5134356;27;20470;-78
2022/04/18 10:09:39;;;;;;;6.22;3.60;;;;;;;16.52;30.36;101787.47;5123567;27;20055;-78
2022/04/18 10:12:04;;;;;;;11.20;4.13;;;;;;;16.68;32.75;101785.19;5112143;28;20118;-78
2022/04/18 10:14:31;;;;;;;5.45;3.25;;;;;;;16.76;29.41;101782.31;5100059;28;20107;-77
2022/04/18 10:16:57;;;;;;;4.90;3.78;;;;;;;16.87;30.54;101785.41;5092518;28;20944;-78
2022/04/18 10:20:00;;;;;;;4.30;3.15;;;;;;;17.04;31.00;101776.94;5093304;28;20074;-78
2022/04/18 10:22:55;;;;;;;6.25;3.75;;;;;;;17.16;31.41;101779.13;5111201;28;20031;-78
2022/04/18 10:25:59;;;;;;;4.85;3.20;;;;;;;17.23;31.02;101778.00;5119545;27;20023;-78
2022/04/18 10:28:30;;;;;;;4.40;3.33;;;;;;;17.25;29.46;101764.75;5123608;27;20410;-78
2022/04/18 10:30:58;;;;;;;4.90;3.80;;;;;;;17.31;30.37;101764.53;5112793;28;20055;-78
2022/04/18 10:33:24;;;;;;;6.40;3.90;;;;;;;17.52;31.78;101762.88;5100877;27;20023;-78
2022/04/18 10:35:54;;;;;;;9.80;4.38;;;;;;;17.76;29.17;101764.63;5112171;27;20489;-78
2022/04/18 10:38:25;;;;;;;6.43;3.80;;;;;;;17.78;28.52;101760.13;5112701;28;20039;-78
2022/04/18 10:40:50;;;;;;;6.20;3.78;;;;;;;17.86;27.78;101757.19;5110879;27;20902;-78
2022/04/18 10:43:15;;;;;;;6.43;3.40;;;;;;;17.88;27.47;101757.13;5112798;28;20035;-78
2022/04/18 10:45:41;;;;;;;3.97;3.38;;;;;;;17.92;28.64;101758.72;5108147;28;20055;-78
2022/04/18 10:48:08;;;;;;;7.88;4.00;;;;;;;17.93;27.70;101753.41;5109157;27;20452;-79
2022/04/18 10:50:44;;;;;;;5.13;3.67;;;;;;;17.90;29.83;101753.50;5112177;28;20023;-79
2022/04/18 10:53:19;;;;;;;6.38;3.63;;;;;;;17.90;27.95;101752.66;5111858;28;20058;-78
2022/04/18 10:55:51;;;;;;;5.80;3.65;;;;;;;18.07;28.63;101744.91;5092120;28;20082;-79
2022/04/18 10:58:17;;;;;;;6.10;3.33;;;;;;;18.13;28.73;101742.03;5092129;28;20038;-79
2022/04/18 11:00:48;;;;;;;6.32;3.53;;;;;;;18.34;27.62;101745.56;5102755;27;20019;-79
2022/04/18 11:03:14;;;;;;;4.97;3.60;;;;;;;18.57;26.16;101738.47;5112951;27;20059;-79
2022/04/18 11:05:39;;;;;;;4.75;3.33;;;;;;;18.61;26.38;101740.91;5112043;28;20463;-79
2022/04/18 11:08:24;;;;;;;5.15;3.80;;;;;;;18.78;27.31;101736.72;5111453;28;20066;-79
2022/04/18 11:10:49;;;;;;;6.68;3.47;;;;;;;19.02;29.08;101730.34;5104126;27;20506;-79
2022/04/18 11:13:15;;;;;;;6.88;3.70;;;;;;;19.15;27.76;101720.09;5112029;28;20024;-79
2022/04/18 11:15:40;;;;;;;5.68;3.70;;;;;;;19.30;26.17;101726.47;5111833;28;20020;-79
2022/04/18 11:18:09;;;;;;;4.53;3.40;;;;;;;19.34;27.37;101720.94;5098371;28;20102;-79
2022/04/18 11:20:36;;;;;;;4.65;3.53;;;;;;;19.53;27.59;101720.09;5109505;28;20035;-79
2022/04/18 11:23:21;;;;;;;5.28;3.70;;;;;;;19.50;26.98;101721.09;5092425;28;20024;-79
2022/04/18 11:25:52;;;;;;;4.75;3.30;;;;;;;19.46;26.02;101713.41;5095457;28;20028;-79
2022/04/18 11:28:18;;;;;;;4.90;3.50;;;;;;;19.64;26.44;101716.03;5112075;28;20065;-78
2022/04/18 11:30:43;;;;;;;4.25;3.70;;;;;;;19.80;25.96;101715.31;5111985;28;20124;-80
2022/04/18 11:33:08;;;;;;;4.60;3.45;;;;;;;19.84;24.82;101715.06;5111984;28;20059;-80
2022/04/18 11:35:34;;;;;;;4.57;3.30;;;;;;;20.17;28.04;101711.72;5103987;28;20360;-79
2022/04/18 11:38:10;;;;;;;9.07;4.28;;;;;;;20.29;26.38;101718.19;5104270;28;20118;-80
2022/04/18 11:40:37;;;;;;;4.78;3.85;;;;;;;20.49;27.13;101712.72;5112018;28;20155;-80
2022/04/18 11:43:16;;;;;;;3.90;3.47;;;;;;;20.68;25.65;101707.38;5101618;28;20041;-80